Time;durP1;ratioP1;P1;durP2;ratioP2;P2;SDS_P1;SDS_P2;PMS_P1;PMS_P2;Temp;Humidity;BMP_temperature;BMP_pressure;BME280_temperature;BME280_humidity;BME280_pressure;Samples;Min_cycle;Max_cycle;Signal;HPM_P1;HPM_P2
2023/09/25 00:00:39;;;;;;;5.73;3.80;;;;;;;11.40;92.07;98842.94;4187967;28;20649;-92
2023/09/25 00:02:42;;;;;;;4.73;2.90;;;;;;;11.40;91.53;98845.53;4170518;28;20640;-89
2023/09/25 00:04:44;;;;;;;4.00;2.90;;;;;;;11.40;90.65;98840.31;4182340;28;21005;-89
2023/09/25 00:06:48;;;;;;;5.70;3.60;;;;;;;11.36;91.98;98839.66;4188864;28;20632;-89
2023/09/25 00:08:52;;;;;;;6.53;3.37;;;;;;;11.37;92.05;98836.13;4188606;28;20628;-89
2023/09/25 00:10:56;;;;;;;5.67;3.70;;;;;;;11.36;91.49;98844.03;4173198;28;20630;-89
2023/09/25 00:12:59;;;;;;;3.87;3.10;;;;;;;11.36;91.61;98841.44;4181993;28;20646;-89
2023/09/25 00:15:05;;;;;;;5.17;3.37;;;;;;;11.36;92.36;98842.25;4187239;28;20627;-89
2023/09/25 00:17:08;;;;;;;4.53;3.30;;;;;;;11.35;90.56;98831.91;4186677;28;20720;-89
2023/09/25 00:19:11;;;;;;;5.50;3.60;;;;;;;11.36;91.59;98839.66;4191358;28;20682;-89
2023/09/25 00:21:15;;;;;;;5.90;3.50;;;;;;;11.37;90.44;98837.91;4189720;28;20697;-89
2023/09/25 00:23:18;;;;;;;4.30;3.20;;;;;;;11.37;92.33;98833.50;4191632;28;21067;-89
2023/09/25 00:25:23;;;;;;;6.00;3.33;;;;;;;11.35;90.77;98826.69;4204799;28;20639;-89
2023/09/25 00:27:26;;;;;;;5.00;3.40;;;;;;;11.31;90.42;98833.88;4175774;28;20707;-89
2023/09/25 00:29:29;;;;;;;4.50;3.00;;;;;;;11.26;91.01;98816.81;4190332;28;20677;-89
2023/09/25 00:31:33;;;;;;;4.30;3.20;;;;;;;11.25;90.91;98828.19;4190550;28;21200;-89
2023/09/25 00:33:36;;;;;;;3.60;3.20;;;;;;;11.26;90.69;98823.78;4168480;28;20640;-89
2023/09/25 00:35:42;;;;;;;4.43;3.57;;;;;;;11.26;91.73;98815.94;4185294;28;21343;-89
2023/09/25 00:37:47;;;;;;;5.20;3.63;;;;;;;11.26;92.12;98821.16;4191470;28;20730;-89
2023/09/25 00:39:51;;;;;;;4.57;3.10;;;;;;;11.24;90.31;98829.09;4188893;28;21348;-89
2023/09/25 00:41:55;;;;;;;5.50;3.47;;;;;;;11.23;91.97;98824.81;4189864;28;20643;-90
2023/09/25 00:43:59;;;;;;;6.53;3.07;;;;;;;11.22;91.60;98825.75;4203493;28;20635;-89
2023/09/25 00:46:02;;;;;;;3.80;3.33;;;;;;;11.23;91.71;98826.56;4191905;28;20970;-89
2023/09/25 00:48:06;;;;;;;5.63;3.30;;;;;;;11.24;90.95;98825.66;4189860;28;20639;-89
2023/09/25 00:50:10;;;;;;;5.70;3.23;;;;;;;11.23;91.72;98819.59;4176679;28;20619;-88
2023/09/25 00:52:14;;;;;;;4.73;3.30;;;;;;;11.23;90.54;98827.44;4176097;28;20731;-89
2023/09/25 00:54:18;;;;;;;4.20;3.27;;;;;;;11.18;89.73;98821.63;4172971;28;20700;-89
2023/09/25 00:56:41;;;;;;;4.20;3.07;;;;;;;11.11;89.69;98822.06;4176960;28;20754;-89
2023/09/25 00:58:46;;;;;;;4.33;3.37;;;;;;;11.06;90.25;98824.13;4169960;28;20628;-89
2023/09/25 01:00:50;;;;;;;4.37;3.20;;;;;;;11.03;91.37;98822.53;4187124;28;20786;-89
2023/09/25 01:02:54;;;;;;;4.37;3.17;;;;;;;11.02;90.47;98820.84;4174772;28;21184;-89
2023/09/25 01:04:59;;;;;;;5.83;3.77;;;;;;;10.99;90.75;98821.03;4188325;28;21051;-89
2023/09/25 01:07:03;;;;;;;4.10;3.00;;;;;;;10.99;91.09;98826.25;4189143;28;20619;-89
2023/09/25 01:09:08;;;;;;;6.50;3.20;;;;;;;10.97;91.07;98828.09;4192601;28;20721;-89
2023/09/25 01:11:12;;;;;;;5.37;3.50;;;;;;;10.96;90.96;98828.19;4187595;28;20624;-89
2023/09/25 01:13:15;;;;;;;5.50;3.50;;;;;;;10.93;90.59;98828.34;4190336;28;21215;-89
2023/09/25 01:15:20;;;;;;;4.90;3.57;;;;;;;10.89;90.85;98825.09;4189325;28;20726;-89
2023/09/25 01:17:24;;;;;;;5.93;4.00;;;;;;;10.86;91.89;98827.88;4187212;28;21021;-89
2023/09/25 01:19:27;;;;;;;6.73;3.40;;;;;;;10.85;91.13;98822.75;4189901;28;20628;-89
2023/09/25 01:21:32;;;;;;;5.87;3.33;;;;;;;10.82;91.90;98820.31;4190763;28;20656;-89
2023/09/25 01:23:37;;;;;;;4.60;3.47;;;;;;;10.81;91.63;98818.66;4185601;28;20674;-89
2023/09/25 01:25:40;;;;;;;4.97;3.60;;;;;;;10.80;91.24;98817.78;4197262;28;20789;-89
2023/09/25 01:27:44;;;;;;;4.23;3.23;;;;;;;10.79;92.01;98817.88;4186838;28;20631;-89
2023/09/25 01:29:47;;;;;;;4.90;3.63;;;;;;;10.76;91.74;98812.84;4188470;28;20655;-89
2023/09/25 01:31:51;;;;;;;5.23;3.47;;;;;;;10.76;91.82;98809.41;4206250;28;20669;-89
2023/09/25 01:33:54;;;;;;;4.07;3.30;;;;;;;10.75;92.01;98810.31;4177255;28;21204;-89
2023/09/25 01:35:57;;;;;;;4.17;3.70;;;;;;;10.72;91.97;98805.28;4166306;28;20644;-89
2023/09/25 01:38:03;;;;;;;5.30;3.80;;;;;;;10.74;92.27;98806.06;4203534;28;20681;-89
2023/09/25 01:40:11;;;;;;;3.97;3.50;;;;;;;10.73;91.75;98812.19;4170177;28;20617;-89
2023/09/25 01:42:14;;;;;;;3.90;3.20;;;;;;;10.72;91.83;98803.53;4176648;28;21236;-89
2023/09/25 01:44:18;;;;;;;4.67;4.03;;;;;;;10.71;91.89;98806.22;4175155;28;20629;-89
2023/09/25 01:46:21;;;;;;;8.60;4.50;;;;;;;10.67;91.60;98800.31;4172812;28;21209;-89
2023/09/25 01:48:25;;;;;;;5.37;4.20;;;;;;;10.68;92.47;98803.78;4168723;28;20648;-89
2023/09/25 01:50:29;;;;;;;5.80;3.50;;;;;;;10.67;92.03;98799.50;4186499;28;20620;-89
2023/09/25 01:52:31;;;;;;;6.87;3.30;;;;;;;10.67;91.95;98804.72;4188208;28;20635;-89
2023/09/25 01:54:35;;;;;;;7.23;4.47;;;;;;;10.64;91.50;98800.50;4172457;28;21215;-89
2023/09/25 01:56:39;;;;;;;5.70;3.97;;;;;;;10.65;92.12;98801.34;4188404;28;20643;-89
2023/09/25 01:58:44;;;;;;;6.13;3.10;;;;;;;10.65;92.42;98802.19;4174873;28;20629;-89
2023/09/25 02:00:47;;;;;;;5.30;3.93;;;;;;;10.66;91.93;98805.63;4185992;28;21365;-89
2023/09/25 02:02:50;;;;;;;5.47;4.17;;;;;;;10.64;92.21;98802.28;4188715;28;20995;-89
2023/09/25 02:04:53;;;;;;;4.73;3.60;;;;;;;10.61;92.24;98798.06;4189520;28;20664;-89
2023/09/25 02:06:57;;;;;;;5.30;3.53;;;;;;;10.60;91.65;98804.22;4188687;28;20643;-88
2023/09/25 02:09:04;;;;;;;4.10;3.40;;;;;;;10.59;91.84;98802.53;4175681;28;21050;-89
2023/09/25 02:11:07;;;;;;;3.43;3.13;;;;;;;10.59;92.51;98801.72;4175428;28;20617;-89
2023/09/25 02:13:12;;;;;;;4.83;3.60;;;;;;;10.58;92.57;98800.03;4169701;28;20633;-89
2023/09/25 02:15:16;;;;;;;5.17;4.13;;;;;;;10.58;92.20;98790.41;4171931;28;21296;-89
2023/09/25 02:17:20;;;;;;;9.93;3.90;;;;;;;10.59;91.50;98796.50;4197273;28;20643;-89
2023/09/25 02:19:25;;;;;;;4.53;3.23;;;;;;;10.57;92.62;98793.09;4174314;28;20640;-89
2023/09/25 02:21:28;;;;;;;4.30;3.40;;;;;;;10.55;91.88;98792.38;4172708;28;20656;-89
2023/09/25 02:23:32;;;;;;;6.30;3.67;;;;;;;10.52;92.25;98784.72;4184088;28;20697;-89
2023/09/25 02:25:35;;;;;;;5.30;3.53;;;;;;;10.50;91.98;98787.41;4174347;28;20641;-89
2023/09/25 02:27:39;;;;;;;5.43;3.60;;;;;;;10.48;92.54;98783.22;4175815;28;20664;-89
2023/09/25 02:29:43;;;;;;;4.37;3.60;;;;;;;10.46;91.95;98778.09;4171432;28;21211;-90
2023/09/25 02:31:46;;;;;;;4.87;3.60;;;;;;;10.42;92.41;98768.75;4186474;28;20632;-89
2023/09/25 02:33:49;;;;;;;4.73;3.67;;;;;;;10.40;92.17;98769.75;4183054;28;20647;-89
2023/09/25 02:36:03;;;;;;;4.20;3.00;;;;;;;10.38;92.50;98771.63;4187214;28;20625;-89
2023/09/25 02:38:06;;;;;;;4.47;3.60;;;;;;;10.36;91.85;98768.28;4185329;28;21057;-89
2023/09/25 02:40:13;;;;;;;4.40;3.90;;;;;;;10.32;92.42;98770.19;4177235;28;20620;-88
2023/09/25 02:42:19;;;;;;;4.30;3.53;;;;;;;10.31;92.64;98775.50;4186820;28;20734;-89
2023/09/25 02:44:22;;;;;;;4.87;3.60;;;;;;;10.33;92.07;98768.44;4169024;28;20985;-89
2023/09/25 02:46:26;;;;;;;4.10;3.37;;;;;;;10.32;91.95;98771.97;4186475;28;20654;-89
2023/09/25 02:48:30;;;;;;;4.80;3.47;;;;;;;10.28;92.21;98765.25;4204273;28;21204;-89
2023/09/25 02:50:32;;;;;;;4.20;3.43;;;;;;;10.27;92.24;98773.16;4167013;28;21255;-89
2023/09/25 02:52:36;;;;;;;4.67;3.20;;;;;;;10.22;92.55;98770.78;4200346;28;21233;-89
2023/09/25 02:54:39;;;;;;;3.97;3.50;;;;;;;10.23;92.07;98782.91;4208343;28;20679;-89
2023/09/25 02:56:43;;;;;;;4.03;3.40;;;;;;;10.24;91.90;98778.53;4190454;28;21171;-89
2023/09/25 02:58:46;;;;;;;4.97;3.80;;;;;;;10.21;91.67;98779.56;4187088;28;21088;-89
2023/09/25 03:00:50;;;;;;;4.37;3.63;;;;;;;10.19;92.01;98777.97;4173651;28;20625;-90
2023/09/25 03:02:55;;;;;;;5.90;3.37;;;;;;;10.15;91.90;98769.47;4186463;28;20712;-90
2023/09/25 03:05:00;;;;;;;5.00;3.63;;;;;;;10.15;92.27;98784.25;4184046;28;20663;-89
2023/09/25 03:07:03;;;;;;;4.83;3.37;;;;;;;10.15;91.91;98769.47;4175177;28;20727;-89
2023/09/25 03:09:07;;;;;;;4.07;3.67;;;;;;;10.17;92.56;98778.03;4172201;28;20621;-89
2023/09/25 03:11:10;;;;;;;4.00;3.10;;;;;;;10.19;92.34;98783.19;4189713;28;21097;-90
2023/09/25 03:13:14;;;;;;;4.23;3.70;;;;;;;10.16;92.33;98781.56;4188534;28;20734;-89
2023/09/25 03:15:17;;;;;;;4.20;3.50;;;;;;;10.16;92.02;98781.56;4188358;28;20723;-89
2023/09/25 03:17:20;;;;;;;5.30;3.30;;;;;;;10.15;92.03;98789.47;4172947;28;21036;-89
2023/09/25 03:19:25;;;;;;;4.23;2.93;;;;;;;10.12;92.32;98782.69;4202394;28;20631;-89
2023/09/25 03:21:30;;;;;;;4.30;3.27;;;;;;;10.10;92.42;98787.16;4182604;28;20640;-89
2023/09/25 03:23:33;;;;;;;4.07;3.43;;;;;;;10.10;92.55;98778.47;4189499;28;20629;-89
2023/09/25 03:25:37;;;;;;;4.83;3.40;;;;;;;10.09;92.02;98785.47;4190714;28;21203;-89
2023/09/25 03:27:40;;;;;;;5.73;3.40;;;;;;;10.07;92.68;98782.09;4190782;28;20621;-89
2023/09/25 03:29:43;;;;;;;4.43;3.30;;;;;;;10.06;92.62;98780.41;4183847;28;21234;-89
2023/09/25 03:31:47;;;;;;;5.50;4.03;;;;;;;10.05;92.46;98776.13;4165651;28;21878;-89
2023/09/25 03:33:50;;;;;;;3.47;3.17;;;;;;;10.02;92.75;98772.84;4187208;28;20664;-89
2023/09/25 03:35:54;;;;;;;6.47;3.83;;;;;;;10.01;93.10;98776.38;4190694;28;20653;-89
2023/09/25 03:37:58;;;;;;;3.93;3.17;;;;;;;10.00;92.91;98772.09;4191255;28;21052;-89
2023/09/25 03:40:07;;;;;;;4.47;3.33;;;;;;;10.01;92.83;98773.75;4189090;28;20674;-89
2023/09/25 03:42:11;;;;;;;4.40;3.57;;;;;;;9.99;92.75;98767.81;4190299;28;20775;-89
2023/09/25 03:44:14;;;;;;;5.27;3.77;;;;;;;10.01;92.61;98777.22;4184134;28;20670;-89
2023/09/25 03:46:17;;;;;;;6.83;4.10;;;;;;;10.00;92.90;98772.94;4186048;28;20632;-89
2023/09/25 03:48:25;;;;;;;3.50;3.10;;;;;;;9.98;92.73;98772.19;4187527;28;20647;-89
2023/09/25 03:50:28;;;;;;;9.10;4.17;;;;;;;9.98;93.07;98769.59;4200861;28;20667;-89
2023/09/25 03:52:33;;;;;;;3.90;3.13;;;;;;;9.96;92.75;98767.97;4193847;28;20631;-89
2023/09/25 03:54:36;;;;;;;5.50;3.33;;;;;;;9.93;93.17;98768.97;4193711;28;20640;-89
2023/09/25 03:56:39;;;;;;;6.30;3.63;;;;;;;9.90;92.52;98763.91;4179386;28;20613;-89
2023/09/25 03:58:42;;;;;;;5.10;3.60;;;;;;;9.89;92.39;98772.66;4195072;28;20681;-89
2023/09/25 04:00:45;;;;;;;5.10;3.20;;;;;;;9.87;92.27;98769.28;4172730;28;20767;-89
2023/09/25 04:02:49;;;;;;;4.07;3.27;;;;;;;9.86;92.72;98772.81;4172990;28;21117;-89
2023/09/25 04:04:52;;;;;;;4.20;3.27;;;;;;;9.83;92.22;98779.94;4187715;28;20699;-89
2023/09/25 04:06:55;;;;;;;3.80;3.17;;;;;;;9.82;91.76;98786.09;4172772;28;21283;-90
2023/09/25 04:09:00;;;;;;;3.97;3.20;;;;;;;9.78;92.13;98781.97;4187553;28;20648;-89
2023/09/25 04:11:03;;;;;;;5.80;4.00;;;;;;;9.76;92.16;98788.16;4186436;28;20727;-89
2023/09/25 04:13:07;;;;;;;5.10;3.37;;;;;;;9.75;91.93;98786.50;4192736;28;20631;-89
2023/09/25 04:15:13;;;;;;;4.53;4.00;;;;;;;9.76;93.03;98790.78;4194837;28;20627;-89
2023/09/25 04:17:18;;;;;;;7.77;4.47;;;;;;;9.77;92.71;98790.69;4188568;28;21254;-89
2023/09/25 04:19:22;;;;;;;7.53;3.93;;;;;;;9.74;93.02;98792.63;4187823;28;20629;-89
2023/09/25 04:21:25;;;;;;;5.30;4.00;;;;;;;9.72;92.84;98789.28;4187285;28;20632;-89
2023/09/25 04:23:28;;;;;;;7.77;3.77;;;;;;;9.70;92.90;98786.75;4190801;28;20655;-89
2023/09/25 04:25:33;;;;;;;4.37;3.50;;;;;;;9.66;92.15;98785.22;4190197;28;20623;-89
2023/09/25 04:27:35;;;;;;;3.50;3.17;;;;;;;9.67;92.38;98788.69;4188270;28;20714;-89
2023/09/25 04:29:41;;;;;;;5.50;3.93;;;;;;;9.67;93.23;98786.91;4189832;28;21168;-89
2023/09/25 04:31:44;;;;;;;4.50;3.30;;;;;;;9.67;93.03;98783.50;4191175;28;21194;-89
2023/09/25 04:33:47;;;;;;;5.20;3.50;;;;;;;9.68;93.27;98787.75;4204756;28;21217;-89
2023/09/25 04:35:52;;;;;;;4.23;3.13;;;;;;;9.64;92.14;98776.66;4188112;28;20635;-89
2023/09/25 04:37:55;;;;;;;4.60;3.67;;;;;;;9.62;92.15;98780.25;4172434;28;20632;-89
2023/09/25 04:39:57;;;;;;;4.27;3.37;;;;;;;9.56;91.87;98781.44;4187400;28;20697;-89
2023/09/25 04:42:02;;;;;;;8.60;3.80;;;;;;;9.55;92.22;98779.75;4174476;28;20727;-92
2023/09/25 04:44:06;;;;;;;6.50;4.03;;;;;;;9.57;92.32;98785.72;4189167;28;20640;-92
2023/09/25 04:46:11;;;;;;;5.23;3.97;;;;;;;9.57;92.79;98779.69;4193095;28;20635;-91
2023/09/25 04:48:14;;;;;;;6.03;3.63;;;;;;;9.59;93.42;98785.63;4175204;28;21033;-91
2023/09/25 04:50:18;;;;;;;3.60;3.00;;;;;;;9.59;93.47;98775.22;4171820;28;20637;-89
2023/09/25 04:52:23;;;;;;;4.97;3.43;;;;;;;9.58;92.83;98781.38;4184356;28;20627;-90
2023/09/25 04:54:27;;;;;;;4.27;3.50;;;;;;;9.58;93.51;98778.78;4189051;28;20635;-90
2023/09/25 04:56:30;;;;;;;4.43;3.50;;;;;;;9.60;93.42;98785.56;4172848;28;20727;-90
2023/09/25 04:58:35;;;;;;;6.23;3.70;;;;;;;9.60;93.14;98784.72;4188254;28;20726;-90
2023/09/25 05:00:39;;;;;;;5.07;3.60;;;;;;;9.60;93.70;98788.16;4194489;28;20727;-90
2023/09/25 05:02:45;;;;;;;5.13;3.70;;;;;;;9.63;93.68;98787.16;4191625;28;20666;-91
2023/09/25 05:04:49;;;;;;;3.90;3.37;;;;;;;9.62;93.24;98788.94;4175647;28;21285;-90
2023/09/25 05:06:52;;;;;;;4.30;3.60;;;;;;;9.60;92.99;98785.56;4194354;28;20726;-90
2023/09/25 05:08:55;;;;;;;4.47;3.40;;;;;;;9.60;93.43;98784.72;4189082;28;20991;-90
2023/09/25 05:10:58;;;;;;;3.80;3.20;;;;;;;9.59;93.44;98783.91;4193659;28;20685;-91
2023/09/25 05:13:01;;;;;;;7.70;3.80;;;;;;;9.60;92.96;98784.72;4185553;28;20644;-90
2023/09/25 05:15:08;;;;;;;4.87;4.00;;;;;;;9.60;93.07;98789.94;4190138;28;20703;-90
2023/09/25 05:17:11;;;;;;;5.27;4.03;;;;;;;9.58;92.55;98790.00;4174429;28;20751;-91
2023/09/25 05:19:16;;;;;;;4.90;3.30;;;;;;;9.58;93.43;98786.59;4191930;28;20710;-91
2023/09/25 05:21:20;;;;;;;6.00;3.70;;;;;;;9.57;92.79;98790.09;4191183;28;20620;-91
2023/09/25 05:23:22;;;;;;;4.77;3.40;;;;;;;9.55;92.65;98787.56;4177869;28;20647;-90
2023/09/25 05:25:26;;;;;;;6.13;3.83;;;;;;;9.56;93.23;98793.59;4188942;28;21126;-90
2023/09/25 05:27:29;;;;;;;4.90;3.60;;;;;;;9.52;93.54;98792.94;4192072;28;21893;-91
2023/09/25 05:29:32;;;;;;;4.37;3.67;;;;;;;9.54;93.27;98795.47;4199922;28;20631;-90
2023/09/25 05:31:36;;;;;;;6.40;3.73;;;;;;;9.53;93.64;98788.56;4190882;28;20652;-90
2023/09/25 05:33:39;;;;;;;5.10;3.63;;;;;;;9.59;94.24;98791.69;4174904;28;20616;-90
2023/09/25 05:35:43;;;;;;;5.30;4.07;;;;;;;9.73;94.46;98796.19;4186836;28;20979;-90
2023/09/25 05:37:47;;;;;;;7.83;5.03;;;;;;;9.90;93.64;98800.38;4191075;28;20626;-91
2023/09/25 05:39:52;;;;;;;8.00;4.00;;;;;;;10.01;93.10;98808.50;4189440;28;20689;-90
2023/09/25 05:41:55;;;;;;;7.30;3.90;;;;;;;10.15;92.61;98800.75;4189199;28;20630;-90
2023/09/25 05:43:58;;;;;;;5.20;3.93;;;;;;;10.26;92.29;98805.38;4208073;28;20651;-89
2023/09/25 05:46:01;;;;;;;4.30;3.80;;;;;;;10.35;92.49;98811.75;4207790;28;21040;-90
2023/09/25 05:48:06;;;;;;;4.07;3.47;;;;;;;10.40;93.22;98803.66;4188234;28;21247;-90
2023/09/25 05:50:09;;;;;;;4.57;3.47;;;;;;;10.52;92.61;98797.75;4203953;28;20685;-90
2023/09/25 05:52:12;;;;;;;8.97;4.40;;;;;;;10.65;91.89;98801.34;4183107;28;20621;-87
2023/09/25 05:54:15;;;;;;;5.73;3.70;;;;;;;10.78;91.87;98803.19;4193054;28;21242;-88
2023/09/25 05:56:19;;;;;;;5.40;3.30;;;;;;;10.90;91.67;98802.47;4188214;28;20620;-88
2023/09/25 05:58:22;;;;;;;5.03;3.90;;;;;;;11.04;90.55;98805.09;4191685;28;20635;-88
2023/09/25 06:00:25;;;;;;;5.50;4.73;;;;;;;11.13;89.88;98802.78;4191373;28;21208;-88
2023/09/25 06:02:28;;;;;;;5.63;4.30;;;;;;;11.27;90.54;98812.41;4188339;28;20636;-88
2023/09/25 06:04:40;;;;;;;6.40;3.90;;;;;;;11.40;89.45;98808.97;4186764;28;20678;-89
2023/09/25 06:06:44;;;;;;;6.93;4.97;;;;;;;11.49;87.58;98800.63;4181800;28;20691;-87
2023/09/25 06:08:47;;;;;;;4.97;4.33;;;;;;;11.61;87.02;98807.72;4202713;28;20642;-88
2023/09/25 06:11:00;;;;;;;7.33;5.10;;;;;;;11.79;89.62;98812.66;4186050;28;20674;-88
2023/09/25 06:13:04;;;;;;;7.10;4.30;;;;;;;11.91;87.30;98814.50;4188114;28;20746;-88
2023/09/25 06:15:09;;;;;;;6.13;5.20;;;;;;;12.05;88.00;98815.31;4189370;28;20633;-89
2023/09/25 06:17:15;;;;;;;6.10;4.20;;;;;;;12.16;86.03;98822.50;4204348;28;20631;-88
2023/09/25 06:19:19;;;;;;;6.57;4.50;;;;;;;12.31;86.90;98814.50;4191819;28;20658;-88
2023/09/25 06:21:23;;;;;;;5.57;3.93;;;;;;;12.43;87.00;98817.19;4182463;28;21228;-88
2023/09/25 06:23:26;;;;;;;4.87;3.67;;;;;;;12.58;86.19;98815.34;4186785;28;20651;-89
2023/09/25 06:25:30;;;;;;;7.37;4.90;;;;;;;12.72;85.91;98814.38;4192052;28;20620;-88
2023/09/25 06:27:35;;;;;;;5.70;4.20;;;;;;;12.86;84.15;98822.19;4163536;28;21329;-87
2023/09/25 06:29:39;;;;;;;6.13;4.80;;;;;;;12.94;83.88;98809.41;4185602;28;21183;-88
2023/09/25 06:31:42;;;;;;;6.07;4.43;;;;;;;13.13;85.92;98817.75;4175567;28;20723;-88
2023/09/25 06:34:04;;;;;;;6.47;4.20;;;;;;;13.28;86.04;98816.72;4183795;28;20643;-87
2023/09/25 06:36:08;;;;;;;9.00;4.20;;;;;;;13.44;84.07;98820.81;4186964;28;20682;-88
2023/09/25 06:38:12;;;;;;;7.67;4.00;;;;;;;13.59;85.10;98829.41;4188270;28;21227;-88
2023/09/25 06:40:17;;;;;;;5.20;4.33;;;;;;;13.77;85.41;98827.19;4205245;28;20677;-88
2023/09/25 06:42:20;;;;;;;6.00;4.37;;;;;;;13.94;84.71;98826.84;4188215;28;20631;-87
2023/09/25 06:44:24;;;;;;;5.07;4.03;;;;;;;14.10;83.40;98827.47;4187726;28;20655;-87
2023/09/25 06:46:27;;;;;;;5.73;3.80;;;;;;;14.25;83.42;98836.88;4187550;28;20686;-85
2023/09/25 06:48:32;;;;;;;6.30;4.20;;;;;;;14.40;82.93;98836.66;4185134;28;20672;-89
2023/09/25 06:50:36;;;;;;;5.30;3.90;;;;;;;14.45;80.94;98829.28;4185143;28;20976;-90
2023/09/25 06:52:40;;;;;;;5.77;3.90;;;;;;;14.51;80.65;98833.22;4174141;28;20736;-90
2023/09/25 06:54:45;;;;;;;6.63;4.20;;;;;;;14.62;82.32;98834.97;4191139;28;20635;-90
2023/09/25 06:56:49;;;;;;;5.70;4.20;;;;;;;14.81;81.52;98842.38;4186389;28;20629;-90
2023/09/25 06:58:52;;;;;;;5.63;4.20;;;;;;;14.82;80.45;98839.59;4204195;28;20766;-90
2023/09/25 07:00:55;;;;;;;5.80;3.80;;;;;;;14.95;82.06;98845.66;4190993;28;20663;-91
2023/09/25 07:03:01;;;;;;;5.40;4.07;;;;;;;15.19;83.74;98846.50;4186699;28;21210;-90
2023/09/25 07:05:05;;;;;;;6.90;3.93;;;;;;;15.36;82.44;98846.91;4190519;28;20711;-90
2023/09/25 07:07:09;;;;;;;5.20;3.80;;;;;;;15.53;80.28;98843.84;4174377;28;21264;-89
2023/09/25 07:09:14;;;;;;;7.70;4.20;;;;;;;15.65;80.46;98848.16;4190117;28;20630;-90
2023/09/25 07:11:19;;;;;;;6.93;4.27;;;;;;;15.67;79.39;98841.81;4191203;28;20634;-90
2023/09/25 07:13:23;;;;;;;5.93;4.03;;;;;;;15.78;78.70;98844.47;4189507;28;20680;-90
2023/09/25 07:15:26;;;;;;;6.60;4.10;;;;;;;15.89;78.70;98844.50;4190830;28;20641;-87
2023/09/25 07:17:29;;;;;;;6.17;3.87;;;;;;;16.04;79.76;98845.91;4175322;28;20631;-87
2023/09/25 07:19:33;;;;;;;6.10;4.30;;;;;;;16.21;80.66;98853.34;4192765;28;20619;-87
2023/09/25 07:21:36;;;;;;;5.10;3.83;;;;;;;16.35;77.65;98853.13;4184597;28;21142;-87
2023/09/25 07:23:39;;;;;;;4.80;3.80;;;;;;;16.42;75.63;98851.66;4192838;28;21195;-87
2023/09/25 07:25:43;;;;;;;8.60;4.10;;;;;;;16.54;80.39;98841.00;4183601;28;20638;-87
2023/09/25 07:27:47;;;;;;;4.03;3.50;;;;;;;16.72;79.65;98850.88;4186000;28;20627;-87
2023/09/25 07:29:50;;;;;;;5.53;3.40;;;;;;;16.88;76.87;98846.03;4186100;28;20998;-88
2023/09/25 07:31:54;;;;;;;4.83;3.93;;;;;;;17.06;79.31;98849.81;4185842;28;20640;-87
2023/09/25 07:33:58;;;;;;;4.43;3.70;;;;;;;17.31;78.50;98842.41;4189440;28;20664;-87
2023/09/25 07:36:01;;;;;;;5.60;3.80;;;;;;;17.46;78.78;98842.94;4186608;28;20762;-87
2023/09/25 07:38:08;;;;;;;6.03;4.00;;;;;;;17.62;78.53;98858.19;4201494;28;20634;-87
2023/09/25 07:40:13;;;;;;;5.60;3.90;;;;;;;17.81;79.11;98857.47;4187686;28;20674;-87
2023/09/25 07:42:17;;;;;;;5.73;4.57;;;;;;;17.93;78.27;98851.97;4183854;28;20646;-87
2023/09/25 07:44:26;;;;;;;4.80;3.63;;;;;;;18.01;75.77;98854.78;4186904;28;20755;-87
2023/09/25 07:46:31;;;;;;;7.73;3.97;;;;;;;18.13;76.08;98856.41;4184594;28;20662;-87
2023/09/25 07:48:37;;;;;;;4.40;3.27;;;;;;;18.21;73.70;98853.94;4191069;28;20628;-87
2023/09/25 07:50:40;;;;;;;5.77;3.67;;;;;;;18.28;73.44;98863.00;4186108;28;20717;-88
2023/09/25 07:52:43;;;;;;;5.53;3.50;;;;;;;18.36;74.99;98856.09;4171503;28;21279;-87
2023/09/25 07:54:48;;;;;;;4.87;3.13;;;;;;;18.46;74.54;98860.44;4190212;28;21250;-88
2023/09/25 07:56:51;;;;;;;3.97;3.40;;;;;;;18.53;72.96;98866.00;4186928;28;20633;-89
2023/09/25 07:58:55;;;;;;;4.33;3.90;;;;;;;18.68;76.56;98862.84;4173219;28;20632;-89
2023/09/25 08:01:05;;;;;;;3.73;2.97;;;;;;;18.79;72.96;98859.25;4171565;28;20615;-89
2023/09/25 08:03:08;;;;;;;3.80;3.10;;;;;;;18.97;73.86;98855.78;4189343;28;20663;-88
2023/09/25 08:05:12;;;;;;;6.33;2.97;;;;;;;19.07;72.49;98849.56;4171480;28;20678;-89
2023/09/25 08:07:18;;;;;;;6.50;3.00;;;;;;;19.14;69.48;98849.84;4189231;28;21131;-88
2023/09/25 08:09:21;;;;;;;3.80;3.00;;;;;;;19.23;73.28;98855.16;4191328;28;20669;-88
2023/09/25 08:11:26;;;;;;;4.10;3.20;;;;;;;19.29;72.43;98851.09;4172638;28;21288;-89
2023/09/25 08:13:29;;;;;;;5.03;2.87;;;;;;;19.31;70.92;98854.47;4187732;28;20681;-92
2023/09/25 08:15:35;;;;;;;4.43;2.90;;;;;;;19.30;70.55;98848.31;4189240;28;20640;-93
2023/09/25 08:17:41;;;;;;;3.40;2.67;;;;;;;19.29;70.35;98851.97;4171786;28;20651;-93
2023/09/25 08:19:45;;;;;;;4.50;3.40;;;;;;;19.35;70.23;98851.41;4192086;28;20633;-92
2023/09/25 08:21:48;;;;;;;3.87;3.20;;;;;;;19.46;70.80;98859.19;4191689;28;20625;-92
2023/09/25 08:23:51;;;;;;;3.93;3.10;;;;;;;19.56;70.03;98855.56;4192809;28;20623;-93
2023/09/25 08:25:54;;;;;;;4.30;3.00;;;;;;;19.65;70.26;98857.34;4167742;28;21351;-93
2023/09/25 08:27:58;;;;;;;6.77;3.27;;;;;;;19.72;71.95;98854.97;4184935;28;20676;-94
2023/09/25 08:30:00;;;;;;;3.50;2.73;;;;;;;19.78;70.38;98855.22;4192707;28;21005;-92
2023/09/25 08:32:04;;;;;;;6.67;3.00;;;;;;;19.87;72.07;98857.03;4190891;28;20633;-92
2023/09/25 08:34:08;;;;;;;4.30;2.80;;;;;;;19.98;72.06;98862.16;4187313;28;20635;-93
2023/09/25 08:36:11;;;;;;;3.43;3.10;;;;;;;20.07;72.86;98862.16;4189994;28;20733;-92
2023/09/25 08:38:15;;;;;;;3.73;3.10;;;;;;;20.20;72.65;98867.13;4176969;28;21032;-92
2023/09/25 08:40:19;;;;;;;4.60;3.10;;;;;;;20.28;70.14;98869.88;4189399;28;20630;-93
2023/09/25 08:42:23;;;;;;;6.70;3.30;;;;;;;20.35;69.14;98869.16;4192182;28;20680;-93
2023/09/25 08:44:26;;;;;;;3.67;2.80;;;;;;;20.44;69.19;98862.97;4192987;28;20665;-92
2023/09/25 08:46:30;;;;;;;3.27;2.83;;;;;;;20.56;70.32;98865.28;4205293;28;20704;-94
2023/09/25 08:48:33;;;;;;;4.90;3.30;;;;;;;20.55;68.83;98863.63;4189313;28;20634;-92
2023/09/25 08:50:38;;;;;;;3.90;2.60;;;;;;;20.56;69.27;98862.63;4175522;28;20648;-93
2023/09/25 08:52:42;;;;;;;3.20;2.60;;;;;;;20.65;68.22;98863.56;4190886;28;21232;-92
2023/09/25 08:54:45;;;;;;;4.70;3.20;;;;;;;20.78;69.02;98862.28;4187567;28;20671;-92
2023/09/25 08:56:49;;;;;;;3.80;2.97;;;;;;;20.89;70.37;98862.88;4194615;28;20619;-91
2023/09/25 08:58:53;;;;;;;3.50;3.13;;;;;;;20.91;70.11;98862.72;4179511;28;20624;-93
2023/09/25 09:00:58;;;;;;;3.03;2.43;;;;;;;21.02;70.61;98863.34;4193726;28;20642;-92
2023/09/25 09:03:02;;;;;;;6.53;3.17;;;;;;;21.14;71.65;98870.13;4176947;28;20652;-93
2023/09/25 09:05:06;;;;;;;3.80;3.00;;;;;;;21.26;69.22;98870.72;4175915;28;21114;-93
2023/09/25 09:07:11;;;;;;;4.70;2.93;;;;;;;21.30;70.58;98857.84;4192556;28;20685;-93
2023/09/25 09:09:14;;;;;;;4.77;3.10;;;;;;;21.39;72.12;98862.25;4191940;28;21000;-93
2023/09/25 09:11:20;;;;;;;3.30;2.83;;;;;;;21.44;69.12;98859.94;4175880;28;21421;-94
2023/09/25 09:13:24;;;;;;;6.70;3.10;;;;;;;21.45;71.23;98858.13;4177515;28;20628;-92
2023/09/25 09:15:29;;;;;;;3.47;2.70;;;;;;;21.40;68.12;98855.91;4188583;28;20616;-93
2023/09/25 09:17:32;;;;;;;3.50;2.70;;;;;;;21.38;67.91;98854.44;4175463;28;20637;-93
2023/09/25 09:19:37;;;;;;;4.07;3.43;;;;;;;21.45;68.13;98844.84;4192360;28;20667;-91
2023/09/25 09:21:44;;;;;;;3.53;2.70;;;;;;;21.53;67.91;98860.88;4170985;28;20637;-92
2023/09/25 09:23:49;;;;;;;4.70;2.93;;;;;;;21.60;67.43;98857.44;4192091;28;20684;-89
2023/09/25 09:25:52;;;;;;;4.37;3.10;;;;;;;21.66;67.18;98858.66;4173895;28;20640;-92
2023/09/25 09:27:58;;;;;;;5.07;2.63;;;;;;;21.59;65.97;98855.78;4177101;28;20674;-92
2023/09/25 09:30:04;;;;;;;4.77;3.00;;;;;;;21.46;65.38;98858.00;4191689;28;20629;-89
2023/09/25 09:32:08;;;;;;;3.57;2.80;;;;;;;21.39;65.76;98853.41;4169654;28;20630;-91
2023/09/25 09:34:11;;;;;;;3.80;2.57;;;;;;;21.28;66.52;98849.16;4176951;28;20626;-92
2023/09/25 09:36:15;;;;;;;4.80;2.70;;;;;;;21.37;65.79;98861.53;4188015;28;20663;-92
2023/09/25 09:38:18;;;;;;;4.40;3.20;;;;;;;21.32;65.77;98847.91;4190963;28;20665;-91
2023/09/25 09:40:24;;;;;;;3.80;2.57;;;;;;;21.37;66.76;98840.28;4179256;28;20645;-91
2023/09/25 09:42:30;;;;;;;4.13;3.00;;;;;;;21.51;67.75;98838.94;4190693;28;20637;-92
2023/09/25 09:44:37;;;;;;;2.97;2.67;;;;;;;21.62;68.94;98842.19;4192017;28;21038;-93